Pawcatuck, Connecticut
Current Conditions -  °F | °C
As of 6:53 PM on Thursday 18 Dec 2014 (Local Time) from KWST Reporting Station
Broken Clouds Broken Clouds  
Wind Chill: 33°   Ceiling: 3200
Heat Index: 38°   Visibility: 10mi
Dew Point: 27°   Wind: 7mph
Humidity: 65%   Direction: 310°NW
Pressure: 29.9"   Gusts: NA
Location:  41.38°N, 71.84°W
Report Text: KWST 182353Z AUTO 31006KT 10SM BKN032 03/M03 A2990 RMK AO2 SLP126 T00331028 10056 20033 50013
Loading
Personal Weather Stations






























Interactive Weather Map New forecast layout! Learn more

10-Day Weather Forecast

Advertisements
Track Severe Weather on mobile